Time;durP1;ratioP1;P1;durP2;ratioP2;P2;SDS_P1;SDS_P2;PMS_P1;PMS_P2;Temp;Humidity;BMP_temperature;BMP_pressure;BME280_temperature;BME280_humidity;BME280_pressure;Samples;Min_cycle;Max_cycle;Signal;HPM_P1;HPM_P2
2022/04/17 00:00:12;;;;;;;6.60;6.00;;;;;;;6.03;66.21;102084.16;5072777;28;20277;-75
2022/04/17 00:02:38;;;;;;;6.47;5.77;;;;;;;6.00;66.70;102065.91;5072993;28;20206;-75
2022/04/17 00:05:06;;;;;;;5.97;5.40;;;;;;;5.99;66.34;102065.03;5064187;28;20231;-75
2022/04/17 00:07:33;;;;;;;6.37;5.40;;;;;;;6.07;66.24;102057.47;5072519;28;20253;-75
2022/04/17 00:10:01;;;;;;;5.70;5.17;;;;;;;6.00;66.41;102055.53;5072625;28;20229;-76
2022/04/17 00:12:28;;;;;;;5.63;5.13;;;;;;;6.03;66.21;102064.28;5073091;28;20206;-75
2022/04/17 00:14:55;;;;;;;6.67;6.07;;;;;;;6.05;66.25;102065.19;5072270;28;20604;-75
2022/04/17 00:17:23;;;;;;;5.83;5.27;;;;;;;6.01;65.46;102073.72;5072723;28;20212;-76
2022/04/17 00:19:50;;;;;;;7.03;6.33;;;;;;;6.04;65.39;102084.16;5072778;28;20209;-76
2022/04/17 00:22:16;;;;;;;7.40;6.67;;;;;;;6.08;64.86;102093.78;5072329;28;20251;-76
2022/04/17 00:24:43;;;;;;;7.60;6.80;;;;;;;6.04;65.41;102093.66;5071604;28;20213;-75
2022/04/17 00:27:10;;;;;;;8.67;7.77;;;;;;;6.00;63.90;102116.03;5072024;28;20206;-75
2022/04/17 00:29:37;;;;;;;10.67;8.47;;;;;;;6.03;63.84;102130.81;5068229;28;20604;-76
2022/04/17 00:32:04;;;;;;;12.90;9.73;;;;;;;6.01;63.41;102132.47;5066537;28;20788;-75
2022/04/17 00:34:32;;;;;;;14.17;11.87;;;;;;;5.94;63.80;102133.97;5071632;28;20200;-76
2022/04/17 00:36:59;;;;;;;14.07;11.03;;;;;;;5.94;62.13;102158.16;5072059;28;20205;-75
2022/04/17 00:39:25;;;;;;;17.07;13.10;;;;;;;6.00;62.04;102174.78;5071979;28;20217;-76
2022/04/17 00:41:53;;;;;;;15.10;13.67;;;;;;;5.98;62.50;102182.50;5072250;28;20646;-75
2022/04/17 00:44:19;;;;;;;20.77;14.70;;;;;;;5.99;62.58;102171.31;5071794;28;20216;-75
2022/04/17 00:46:46;;;;;;;20.93;15.70;;;;;;;5.97;63.14;102165.22;5071956;28;20222;-75
2022/04/17 00:49:12;;;;;;;23.50;17.00;;;;;;;5.94;63.54;102159.88;5072312;28;20207;-76
2022/04/17 00:51:43;;;;;;;25.07;17.40;;;;;;;5.85;62.97;102155.34;5071666;28;20287;-75
2022/04/17 00:54:13;;;;;;;22.23;16.00;;;;;;;5.78;64.13;102153.41;5072038;28;20214;-73
2022/04/17 00:56:40;;;;;;;21.13;16.00;;;;;;;5.63;64.61;102133.13;5072115;28;20228;-75
2022/04/17 00:59:09;;;;;;;16.80;15.00;;;;;;;5.60;64.54;102114.03;5071558;28;20668;-76
2022/04/17 01:01:37;;;;;;;19.93;15.80;;;;;;;5.52;65.23;102091.34;5063332;28;20310;-76
2022/04/17 01:04:05;;;;;;;14.63;13.20;;;;;;;5.48;65.37;102086.06;5071642;28;20206;-76
2022/04/17 01:06:31;;;;;;;14.47;13.07;;;;;;;5.37;66.36;102065.00;5071675;28;20702;-75
2022/04/17 01:09:00;;;;;;;13.77;9.73;;;;;;;5.24;67.01;102029.28;5071974;28;20289;-76
2022/04/17 01:11:27;;;;;;;10.70;9.70;;;;;;;5.17;67.88;102005.81;5071741;28;20279;-76
2022/04/17 01:13:54;;;;;;;11.50;10.30;;;;;;;5.14;68.10;101989.31;5071137;28;20201;-76
2022/04/17 01:16:23;;;;;;;11.40;10.37;;;;;;;5.14;68.23;101971.19;5071829;28;20831;-76
2022/04/17 01:19:00;;;;;;;11.67;10.47;;;;;;;5.21;68.51;101962.75;5071899;28;20296;-75
2022/04/17 01:21:29;;;;;;;11.27;10.20;;;;;;;5.26;68.66;101948.22;5072091;28;20317;-76
2022/04/17 01:26:58;;;;;;;10.40;9.10;;;;;;;5.29;68.60;101958.69;5071822;28;20251;-76
2022/04/17 01:29:26;;;;;;;9.77;8.90;;;;;;;5.27;68.27;101965.53;5070275;28;20213;-76
2022/04/17 01:31:53;;;;;;;9.90;9.00;;;;;;;5.28;68.38;101966.41;5064993;28;20221;-76
2022/04/17 01:34:21;;;;;;;9.50;8.50;;;;;;;5.30;68.10;101975.06;5071062;28;20210;-76
2022/04/17 01:36:50;;;;;;;12.10;8.93;;;;;;;5.34;67.68;101987.28;5071913;28;20255;-76
2022/04/17 01:39:17;;;;;;;10.90;10.00;;;;;;;5.33;66.01;102024.34;5073046;28;20706;-75
2022/04/17 01:41:44;;;;;;;11.20;10.20;;;;;;;5.29;65.53;102061.34;5075526;28;20276;-75
2022/04/17 01:44:10;;;;;;;10.33;9.33;;;;;;;4.18;68.83;102060.47;5075145;28;20259;-75
2022/04/17 01:46:37;;;;;;;10.97;9.97;;;;;;;3.78;70.71;101974.75;5075476;28;20228;-73
2022/04/17 01:49:04;;;;;;;9.33;8.40;;;;;;;3.53;71.98;101905.94;5075248;28;20623;-73
2022/04/17 01:51:35;;;;;;;9.83;9.07;;;;;;;3.56;73.32;101849.22;5075267;28;20240;-74
2022/04/17 01:54:04;;;;;;;9.77;8.87;;;;;;;3.82;73.67;101819.91;5075274;28;20189;-75
2022/04/17 01:56:30;;;;;;;9.03;8.23;;;;;;;3.97;72.41;101830.72;5074762;28;20666;-75
2022/04/17 01:58:57;;;;;;;9.10;8.40;;;;;;;4.13;72.27;101839.81;5075230;28;20255;-75
2022/04/17 02:01:24;;;;;;;9.50;8.70;;;;;;;4.19;72.07;101850.34;5066765;28;20228;-76
2022/04/17 02:03:50;;;;;;;8.53;7.73;;;;;;;4.28;71.34;101870.38;5074667;28;20577;-73
2022/04/17 02:06:17;;;;;;;9.40;8.60;;;;;;;4.25;71.78;101866.03;5074857;28;20225;-75
2022/04/17 02:08:44;;;;;;;9.40;8.60;;;;;;;4.26;72.41;101854.88;5074920;28;20634;-75
2022/04/17 02:11:12;;;;;;;9.23;8.43;;;;;;;4.27;71.84;101846.25;5074411;28;20321;-75
2022/04/17 02:13:39;;;;;;;9.97;9.07;;;;;;;4.25;72.63;101842.75;5074724;28;20210;-75
2022/04/17 02:16:06;;;;;;;9.60;8.80;;;;;;;4.26;72.29;101835.88;5075023;28;20205;-74
2022/04/17 02:18:33;;;;;;;14.33;9.83;;;;;;;4.32;71.74;101860.22;5074729;28;20717;-75
2022/04/17 02:20:59;;;;;;;10.40;9.17;;;;;;;4.38;71.70;101857.81;5074859;28;20254;-75
2022/04/17 02:23:26;;;;;;;10.07;9.17;;;;;;;4.45;71.95;101858.84;5074767;28;20209;-76
2022/04/17 02:25:52;;;;;;;10.40;9.30;;;;;;;4.52;71.48;101865.06;5074315;28;20234;-73
2022/04/17 02:28:20;;;;;;;11.10;10.10;;;;;;;4.46;71.76;101860.63;5074642;28;20205;-75
2022/04/17 02:30:46;;;;;;;11.53;10.43;;;;;;;4.49;71.61;101852.06;5066164;28;20229;-75
2022/04/17 02:33:13;;;;;;;11.97;10.87;;;;;;;4.41;71.79;101862.19;5074950;28;20234;-75
2022/04/17 02:35:39;;;;;;;12.93;11.33;;;;;;;4.38;70.92;101881.06;5073982;28;20205;-76
2022/04/17 02:38:05;;;;;;;11.87;10.53;;;;;;;4.36;70.22;101899.94;5074252;28;20259;-74
2022/04/17 02:40:32;;;;;;;15.80;12.10;;;;;;;4.44;70.17;101901.06;5074470;28;20229;-75
2022/04/17 02:42:59;;;;;;;11.77;10.30;;;;;;;4.43;70.57;101899.28;5074375;28;20208;-75
2022/04/17 02:45:27;;;;;;;11.47;10.33;;;;;;;4.35;69.97;101908.53;5073843;28;20698;-75
2022/04/17 02:47:53;;;;;;;11.27;10.27;;;;;;;4.38;69.39;101926.75;5074185;28;20205;-76
2022/04/17 02:50:22;;;;;;;9.77;8.87;;;;;;;4.44;69.30;101928.59;5074239;28;20229;-75
2022/04/17 02:52:49;;;;;;;11.00;9.07;;;;;;;4.45;68.93;101931.25;5073718;28;20217;-75
2022/04/17 02:55:15;;;;;;;10.13;9.23;;;;;;;4.48;69.33;101949.44;5074196;28;20274;-76
2022/04/17 02:57:41;;;;;;;10.30;9.30;;;;;;;4.45;69.57;101938.13;5073964;28;20207;-75
2022/04/17 03:00:10;;;;;;;9.47;8.67;;;;;;;4.40;69.84;101929.34;5066806;28;20230;-75
2022/04/17 03:05:41;;;;;;;7.93;7.23;;;;;;;4.20;69.86;101918.38;5073889;28;20220;-76
2022/04/17 03:08:09;;;;;;;8.30;7.60;;;;;;;4.01;71.39;101901.44;5074169;28;20223;-75
2022/04/17 03:10:36;;;;;;;7.77;7.07;;;;;;;4.07;71.43;101886.13;5073779;28;20221;-73
2022/04/17 03:13:05;;;;;;;7.00;6.40;;;;;;;4.00;72.30;101864.38;5073755;28;20204;-76
2022/04/17 03:15:31;;;;;;;7.57;6.80;;;;;;;4.01;73.05;101844.63;5073592;28;20207;-75
2022/04/17 03:17:59;;;;;;;7.80;7.00;;;;;;;4.01;71.79;101848.06;5073581;28;20728;-75
2022/04/17 03:20:26;;;;;;;7.57;6.87;;;;;;;3.87;72.88;101847.66;5073799;28;20917;-74
2022/04/17 03:22:53;;;;;;;8.47;6.50;;;;;;;3.94;72.20;101849.59;5073622;28;20209;-76
2022/04/17 03:25:19;;;;;;;7.93;7.23;;;;;;;3.84;72.60;101844.06;5073276;28;20204;-74
2022/04/17 03:27:46;;;;;;;7.53;6.93;;;;;;;3.93;72.02;101852.13;5073503;28;20302;-74
2022/04/17 03:30:14;;;;;;;7.60;7.00;;;;;;;3.82;72.24;101844.03;5065282;28;20727;-75
2022/04/17 03:32:41;;;;;;;7.17;6.57;;;;;;;3.77;72.60;101840.44;5053316;28;20293;-76
2022/04/17 03:35:10;;;;;;;7.83;7.07;;;;;;;3.72;73.89;101821.31;5053268;28;20205;-75
2022/04/17 03:37:36;;;;;;;7.43;6.83;;;;;;;3.67;73.85;101792.78;5053450;28;20205;-73
2022/04/17 03:40:04;;;;;;;7.60;6.90;;;;;;;3.73;73.40;101786.94;5053358;28;20282;-76
2022/04/17 03:42:32;;;;;;;7.70;7.00;;;;;;;3.71;74.06;101784.31;5053463;28;20202;-75
2022/04/17 03:44:58;;;;;;;7.80;7.10;;;;;;;3.84;73.56;101784.69;5062031;28;20287;-75
2022/04/17 03:47:25;;;;;;;7.00;6.40;;;;;;;3.84;72.52;101801.03;5072828;28;20256;-75
2022/04/17 03:49:51;;;;;;;7.90;7.27;;;;;;;3.69;70.68;101858.28;5073061;28;20201;-75
2022/04/17 03:52:19;;;;;;;8.93;8.23;;;;;;;3.79;71.09;101880.09;5072809;28;20213;-75
2022/04/17 03:54:45;;;;;;;8.60;7.80;;;;;;;3.69;71.85;101870.31;5072702;28;20730;-74
2022/04/17 03:57:12;;;;;;;9.53;8.10;;;;;;;3.71;72.09;101845.41;5073323;28;20196;-75
2022/04/17 03:59:39;;;;;;;7.57;6.97;;;;;;;3.70;72.30;101844.50;5073180;28;20208;-76
2022/04/17 04:02:07;;;;;;;8.93;8.13;;;;;;;3.64;72.67;101840.88;5072305;28;20305;-76
2022/04/17 04:04:34;;;;;;;7.63;7.03;;;;;;;3.70;71.89;101835.91;5072551;28;20208;-75
2022/04/17 04:07:00;;;;;;;7.97;7.03;;;;;;;3.71;72.75;101829.91;5072590;28;20221;-75
2022/04/17 04:09:28;;;;;;;7.30;6.70;;;;;;;3.67;72.38;101840.97;5072819;28;20259;-73
2022/04/17 04:11:54;;;;;;;7.93;7.23;;;;;;;3.67;72.28;101843.56;5072690;28;20358;-75
2022/04/17 04:14:21;;;;;;;7.77;7.07;;;;;;;3.58;72.74;101838.97;5063843;28;20210;-75
2022/04/17 04:16:47;;;;;;;7.47;6.77;;;;;;;3.49;72.98;101830.91;5072637;28;20208;-74
2022/04/17 04:19:13;;;;;;;8.53;7.77;;;;;;;3.44;72.78;101827.31;5072443;28;20626;-74
2022/04/17 04:21:48;;;;;;;8.50;7.60;;;;;;;3.30;73.30;101812.25;5072402;28;20279;-75
2022/04/17 04:24:15;;;;;;;8.70;7.83;;;;;;;3.32;73.15;101801.97;5072115;28;20209;-75
2022/04/17 04:26:43;;;;;;;8.00;7.30;;;;;;;3.26;73.92;101800.06;5072396;28;20221;-75
2022/04/17 04:29:09;;;;;;;8.37;7.60;;;;;;;3.28;73.23;101797.56;5072406;28;20213;-74
2022/04/17 04:31:36;;;;;;;8.17;7.47;;;;;;;3.26;73.47;101797.50;5072423;28;20224;-75
2022/04/17 04:34:03;;;;;;;7.70;7.10;;;;;;;3.18;74.01;101784.34;5072376;28;20213;-75
2022/04/17 04:36:29;;;;;;;7.97;7.37;;;;;;;3.22;74.18;101762.09;5071958;28;20740;-76
2022/04/17 04:38:55;;;;;;;8.03;7.33;;;;;;;3.22;74.97;101758.66;5072178;28;20630;-75
2022/04/17 04:41:22;;;;;;;6.63;6.13;;;;;;;3.29;74.18;101752.84;5072203;28;20228;-75
2022/04/17 04:43:50;;;;;;;8.20;7.60;;;;;;;3.37;74.32;101765.19;5067207;28;20583;-74
2022/04/17 04:46:16;;;;;;;7.43;6.73;;;;;;;3.43;74.69;101758.44;5068590;28;20250;-76
2022/04/17 04:51:29;;;;;;;7.30;6.63;;;;;;;3.47;75.39;101768.94;5071790;28;20663;-75
2022/04/17 04:53:57;;;;;;;7.10;6.50;;;;;;;3.58;74.79;101757.22;5071948;28;20201;-75
2022/04/17 04:56:24;;;;;;;7.50;6.60;;;;;;;3.62;74.43;101767.66;5072087;28;20214;-75
2022/04/17 04:58:53;;;;;;;7.23;6.63;;;;;;;3.72;73.69;101780.00;5072060;28;20210;-75
2022/04/17 05:01:19;;;;;;;8.00;7.10;;;;;;;3.72;74.59;101775.72;5071997;28;20270;-75
2022/04/17 05:03:46;;;;;;;7.97;7.37;;;;;;;3.69;74.61;101778.22;5071464;28;20250;-75
2022/04/17 05:06:12;;;;;;;7.67;7.07;;;;;;;3.73;74.71;101764.56;5071582;28;20288;-76
2022/04/17 05:08:38;;;;;;;8.60;7.80;;;;;;;3.66;74.43;101770.38;5072042;28;20208;-75
2022/04/17 05:11:05;;;;;;;8.03;6.67;;;;;;;3.72;74.36;101772.25;5071729;28;20305;-75
2022/04/17 05:13:34;;;;;;;9.97;7.67;;;;;;;3.71;75.29;101771.41;5068227;28;20732;-74
2022/04/17 05:16:02;;;;;;;10.83;8.07;;;;;;;3.41;72.45;101799.72;5066184;28;20205;-75
2022/04/17 05:18:29;;;;;;;7.60;7.00;;;;;;;3.50;73.37;101817.19;5072177;28;20201;-75
2022/04/17 05:20:55;;;;;;;9.13;7.83;;;;;;;3.67;74.31;101810.00;5071522;28;20231;-75
2022/04/17 05:23:26;;;;;;;9.70;8.43;;;;;;;3.82;73.72;101815.63;5071568;28;20692;-75
2022/04/17 05:25:53;;;;;;;8.57;7.77;;;;;;;3.85;71.85;101854.47;5071697;28;20189;-75
2022/04/17 05:28:20;;;;;;;8.37;7.57;;;;;;;3.66;70.87;101899.47;5071410;28;20239;-75
2022/04/17 05:30:47;;;;;;;8.97;8.17;;;;;;;3.09;73.35;101894.09;5071572;28;20240;-75
2022/04/17 05:33:18;;;;;;;8.77;8.10;;;;;;;3.21;72.52;101865.25;5071767;28;20254;-75
2022/04/17 05:35:44;;;;;;;8.90;8.10;;;;;;;3.42;73.10;101850.50;5071525;28;20287;-75
2022/04/17 05:38:11;;;;;;;9.03;8.23;;;;;;;3.59;73.93;101833.00;5071577;28;20221;-75
2022/04/17 05:40:40;;;;;;;8.97;8.27;;;;;;;3.77;73.53;101827.53;5071503;28;20221;-74
2022/04/17 05:43:06;;;;;;;9.20;8.30;;;;;;;3.78;72.73;101855.09;5071308;28;20705;-76
2022/04/17 05:45:33;;;;;;;8.43;7.73;;;;;;;3.61;71.73;101875.22;5062645;28;20201;-75
2022/04/17 05:48:01;;;;;;;9.33;8.53;;;;;;;3.50;72.24;101890.34;5071546;28;20316;-75
2022/04/17 05:50:29;;;;;;;9.60;8.70;;;;;;;3.67;73.09;101878.00;5071648;28;20216;-75
2022/04/17 05:52:55;;;;;;;9.43;8.57;;;;;;;3.84;73.87;101850.13;5071229;28;20681;-75
2022/04/17 05:55:22;;;;;;;9.43;8.53;;;;;;;3.98;73.28;101853.13;5070946;28;20209;-75
2022/04/17 05:57:48;;;;;;;8.90;8.20;;;;;;;4.08;72.99;101864.63;5071735;28;20201;-75
2022/04/17 06:00:16;;;;;;;8.67;7.93;;;;;;;4.17;73.52;101867.50;5071096;28;20710;-75
2022/04/17 06:02:44;;;;;;;9.20;8.30;;;;;;;4.32;73.56;101851.56;5071238;28;20683;-75
2022/04/17 06:05:11;;;;;;;9.70;8.90;;;;;;;4.41;74.36;101848.38;5071163;28;20822;-74
2022/04/17 06:07:39;;;;;;;9.03;8.43;;;;;;;4.49;73.94;101839.13;5071240;28;20308;-74
2022/04/17 06:10:07;;;;;;;8.93;8.13;;;;;;;4.40;74.56;101846.63;5070948;28;20744;-75
2022/04/17 06:12:34;;;;;;;12.57;11.47;;;;;;;4.23;74.90;101831.50;5071380;28;20201;-74
2022/04/17 06:15:01;;;;;;;12.87;11.77;;;;;;;4.22;74.36;101845.22;5062353;28;20727;-75
2022/04/17 06:17:27;;;;;;;13.60;12.33;;;;;;;4.41;74.78;101846.66;5071307;28;20264;-74
2022/04/17 06:19:54;;;;;;;13.57;12.17;;;;;;;4.61;74.75;101834.31;5071408;28;20230;-75
2022/04/17 06:22:21;;;;;;;12.50;10.20;;;;;;;4.74;71.58;101884.69;5071019;28;20218;-73
2022/04/17 06:24:49;;;;;;;12.13;10.60;;;;;;;4.84;71.24;101915.16;5071367;28;20238;-74
2022/04/17 06:27:16;;;;;;;11.37;10.47;;;;;;;4.90;70.64;101948.94;5074784;28;20279;-73
2022/04/17 06:29:42;;;;;;;10.90;9.90;;;;;;;4.97;70.72;101950.00;5074387;28;20210;-75
2022/04/17 06:32:09;;;;;;;13.80;10.50;;;;;;;5.05;71.34;101939.84;5074783;28;20213;-75
2022/04/17 06:34:35;;;;;;;12.57;11.07;;;;;;;5.10;71.71;101933.97;5074549;28;20626;-75
2022/04/17 06:37:01;;;;;;;16.57;15.00;;;;;;;4.99;74.28;101891.41;5074272;28;20197;-74
2022/04/17 06:39:28;;;;;;;14.17;12.87;;;;;;;4.91;74.46;101857.53;5074321;28;20743;-75
2022/04/17 06:41:57;;;;;;;13.83;12.50;;;;;;;4.94;74.97;101839.53;5074360;28;20224;-75
2022/04/17 06:44:23;;;;;;;11.93;10.70;;;;;;;5.09;74.69;101828.69;5065780;28;20214;-74
2022/04/17 06:46:49;;;;;;;10.67;9.77;;;;;;;5.26;72.01;101877.47;5074115;28;20254;-74
2022/04/17 06:49:16;;;;;;;9.87;9.03;;;;;;;5.37;70.35;101939.03;5074389;28;20211;-75
2022/04/17 06:51:42;;;;;;;9.33;8.40;;;;;;;5.52;68.48;101997.25;5074210;28;20279;-75
2022/04/17 06:54:09;;;;;;;8.30;7.60;;;;;;;5.59;68.36;102022.50;5074093;28;20260;-74
2022/04/17 06:56:35;;;;;;;8.27;7.53;;;;;;;5.67;67.67;102052.06;5073973;28;20211;-75
2022/04/17 06:59:05;;;;;;;8.03;7.40;;;;;;;5.70;67.76;102065.09;5073981;28;20671;-75
2022/04/17 07:01:32;;;;;;;7.20;6.60;;;;;;;5.73;67.13;102075.56;5074066;28;20590;-75
2022/04/17 07:03:58;;;;;;;7.37;6.67;;;;;;;5.80;66.60;102083.50;5073817;28;20373;-75
2022/04/17 07:06:25;;;;;;;7.67;7.03;;;;;;;5.83;66.62;102093.91;5073778;28;20615;-75
2022/04/17 07:08:51;;;;;;;7.53;6.90;;;;;;;5.89;66.46;102104.47;5074001;28;20227;-75
2022/04/17 07:11:19;;;;;;;7.73;7.13;;;;;;;5.93;66.54;102102.00;5073428;28;20230;-75
2022/04/17 07:13:47;;;;;;;7.67;7.07;;;;;;;6.01;67.19;102088.41;5069185;28;20674;-74
2022/04/17 07:16:14;;;;;;;8.67;7.87;;;;;;;6.10;67.15;102080.84;5069683;28;20666;-75
2022/04/17 07:18:41;;;;;;;8.33;7.63;;;;;;;6.16;66.90;102094.88;5070752;28;20250;-75
2022/04/17 07:21:07;;;;;;;7.20;6.60;;;;;;;6.23;66.41;102089.84;5062385;28;20243;-74
2022/04/17 07:23:34;;;;;;;6.83;6.30;;;;;;;6.32;64.90;102123.78;5062174;28;20205;-74
2022/04/17 07:26:00;;;;;;;5.87;5.47;;;;;;;6.39;64.84;102149.03;5063070;28;20200;-74
2022/04/17 07:28:26;;;;;;;7.10;6.50;;;;;;;6.49;64.87;102157.94;5063960;28;20225;-74
2022/04/17 07:30:53;;;;;;;6.33;5.83;;;;;;;6.56;63.61;102170.22;5062250;28;20243;-74
2022/04/17 07:33:21;;;;;;;6.00;5.50;;;;;;;6.67;62.08;102214.59;5072626;28;20227;-74
2022/04/17 07:35:48;;;;;;;6.33;5.83;;;;;;;6.75;61.80;102223.47;5070008;28;20570;-74
2022/04/17 07:38:14;;;;;;;6.37;5.87;;;;;;;6.81;60.85;102241.78;5072177;28;20196;-75
2022/04/17 07:40:41;;;;;;;7.20;6.50;;;;;;;6.88;60.89;102268.81;5072959;28;20220;-74
2022/04/17 07:43:07;;;;;;;7.27;6.57;;;;;;;6.94;61.38;102262.03;5069988;28;20856;-75
2022/04/17 07:45:34;;;;;;;8.33;7.53;;;;;;;7.02;61.15;102264.81;5072369;28;20203;-75
2022/04/17 07:48:01;;;;;;;7.37;6.67;;;;;;;7.03;62.03;102258.78;5072839;28;20257;-75
2022/04/17 07:50:31;;;;;;;7.00;6.30;;;;;;;7.16;61.18;102271.25;5073008;28;20224;-73
2022/04/17 07:52:59;;;;;;;7.33;6.60;;;;;;;7.28;60.14;102291.44;5072682;28;20218;-75
2022/04/17 07:55:25;;;;;;;7.47;6.77;;;;;;;7.35;60.66;102289.84;5072140;28;20239;-75
2022/04/17 07:57:57;;;;;;;6.70;6.17;;;;;;;7.45;60.39;102309.16;5072082;28;20728;-75
2022/04/17 08:00:25;;;;;;;6.87;6.27;;;;;;;7.50;59.89;102318.81;5072262;28;20231;-74
2022/04/17 08:02:55;;;;;;;6.33;5.93;;;;;;;7.60;59.43;102317.31;5072393;28;20250;-74
2022/04/17 08:05:22;;;;;;;6.33;5.83;;;;;;;7.62;60.60;102314.75;5071719;28;20239;-74
2022/04/17 08:07:52;;;;;;;6.63;6.07;;;;;;;7.73;58.54;102324.56;5069646;28;20223;-74
2022/04/17 08:10:18;;;;;;;5.83;5.30;;;;;;;7.82;57.71;102357.69;5072186;28;20575;-76
2022/04/17 08:12:45;;;;;;;6.30;5.70;;;;;;;7.91;57.56;102376.09;5073833;28;20206;-76
2022/04/17 08:15:11;;;;;;;5.60;5.10;;;;;;;8.00;57.16;102384.97;5071731;28;20254;-77
2022/04/17 08:17:38;;;;;;;5.63;5.23;;;;;;;8.02;57.89;102397.16;5071137;28;20251;-77
2022/04/17 08:20:05;;;;;;;5.67;5.17;;;;;;;8.08;58.19;102379.09;5067525;28;20216;-76
2022/04/17 08:22:32;;;;;;;6.07;5.67;;;;;;;8.14;55.87;102417.38;5067979;28;20761;-75
2022/04/17 08:24:59;;;;;;;5.70;5.23;;;;;;;8.20;55.82;102429.63;5065553;28;20248;-76
2022/04/17 08:27:26;;;;;;;5.87;5.37;;;;;;;8.25;56.22;102420.22;5065368;28;20198;-78
2022/04/17 08:29:52;;;;;;;6.30;5.73;;;;;;;8.32;55.27;102454.22;5072821;28;20273;-77
2022/04/17 08:32:19;;;;;;;5.17;4.77;;;;;;;8.40;55.94;102469.13;5072201;28;20197;-77
2022/04/17 08:34:46;;;;;;;5.05;4.65;;;;;;;8.49;54.16;102496.28;5066860;28;20435;-80
2022/04/17 08:37:12;;;;;;;3.87;3.57;;;;;;;8.59;51.78;102538.13;5071197;28;20649;-79
2022/04/17 08:39:38;;;;;;;4.40;4.00;;;;;;;8.66;50.99;102623.31;5073394;28;20199;-79
2022/04/17 08:42:08;;;;;;;4.57;4.27;;;;;;;8.68;52.71;102599.13;5074827;28;20202;-80
2022/04/17 08:44:35;;;;;;;5.27;4.80;;;;;;;8.79;52.22;102577.66;5068976;28;20278;-79
2022/04/17 08:47:02;;;;;;;4.20;3.90;;;;;;;8.90;50.02;102610.00;5064277;28;20208;-79
2022/04/17 08:49:28;;;;;;;4.60;4.20;;;;;;;8.91;49.41;102680.38;5074053;28;20277;-78
2022/04/17 08:51:56;;;;;;;4.03;3.30;;;;;;;8.95;49.07;102681.31;5074692;28;20644;-79
2022/04/17 08:54:26;;;;;;;3.43;3.13;;;;;;;9.07;47.85;102736.31;5074591;28;20349;-79
2022/04/17 08:56:53;;;;;;;4.57;3.10;;;;;;;9.20;56.86;102731.44;5074210;28;20208;-80
2022/04/17 08:59:21;;;;;;;3.97;3.13;;;;;;;9.37;53.13;102570.22;5074972;28;20258;-79
2022/04/17 09:01:47;;;;;;;3.70;3.40;;;;;;;9.46;48.62;102606.91;5072299;28;20227;-79
2022/04/17 09:04:14;;;;;;;3.67;3.37;;;;;;;9.64;49.63;102577.72;5074985;28;20200;-78
2022/04/17 09:06:41;;;;;;;4.43;3.87;;;;;;;9.71;51.38;102669.13;5072594;28;20612;-78
2022/04/17 09:09:08;;;;;;;3.97;3.67;;;;;;;9.76;48.51;102679.66;5070272;28;20580;-78
2022/04/17 09:11:35;;;;;;;3.87;3.57;;;;;;;9.80;46.80;102740.59;5075780;28;20218;-78
2022/04/17 09:14:05;;;;;;;4.70;3.60;;;;;;;9.92;53.63;102673.88;5077053;28;20215;-77
2022/04/17 09:16:35;;;;;;;2.70;2.17;;;;;;;9.98;47.30;102758.38;5073794;28;20303;-77
2022/04/17 09:19:13;;;;;;;4.00;3.70;;;;;;;10.02;45.93;102825.41;5073065;28;20773;-77
2022/04/17 09:21:40;;;;;;;3.17;2.97;;;;;;;10.05;45.23;102835.91;5074834;28;20938;-78
2022/04/17 09:24:15;;;;;;;2.50;2.30;;;;;;;10.06;43.72;102861.16;5072086;28;20266;-78
2022/04/17 09:26:49;;;;;;;1.90;1.60;;;;;;;10.22;45.77;102841.50;5073407;28;20216;-79
2022/04/17 09:29:21;;;;;;;1.63;1.40;;;;;;;10.43;43.36;102867.22;5075985;28;20233;-78
2022/04/17 09:31:56;;;;;;;2.67;1.30;;;;;;;10.57;38.56;102985.91;5070639;28;20235;-78
2022/04/17 09:34:23;;;;;;;1.60;1.20;;;;;;;10.57;35.88;103157.41;5074664;28;20191;-78
2022/04/17 09:36:52;;;;;;;4.17;1.30;;;;;;;10.53;36.49;103232.19;5076807;28;20256;-81
2022/04/17 09:39:20;;;;;;;1.30;1.20;;;;;;;10.53;35.41;103263.53;5075998;28;20207;-80
2022/04/17 09:41:54;;;;;;;1.87;1.33;;;;;;;10.56;37.40;103254.88;5077627;28;20230;-82
2022/04/17 09:44:39;;;;;;;1.80;1.50;;;;;;;10.71;40.52;103140.34;5068660;28;20205;-82
2022/04/17 09:47:09;;;;;;;1.33;1.23;;;;;;;10.76;36.44;103171.78;5071076;28;20204;-78
2022/04/17 09:49:56;;;;;;;1.67;1.40;;;;;;;10.87;37.14;103139.84;5073777;28;20211;-79
2022/04/17 09:52:24;;;;;;;2.57;1.43;;;;;;;11.03;39.17;103109.72;5074240;28;20213;-77
2022/04/17 09:54:52;;;;;;;2.33;1.20;;;;;;;11.12;36.46;103141.31;5074601;28;20264;-78
2022/04/17 09:57:19;;;;;;;1.53;1.37;;;;;;;11.22;38.13;103126.69;5074166;28;20205;-78
2022/04/17 09:59:47;;;;;;;1.63;1.40;;;;;;;11.22;36.48;103180.69;5074774;28;20667;-78
2022/04/17 10:02:15;;;;;;;1.43;1.20;;;;;;;11.27;36.99;103158.16;5077202;28;20208;-78
2022/04/17 10:04:45;;;;;;;1.43;1.33;;;;;;;11.28;36.83;103141.66;5078551;28;20215;-78
2022/04/17 10:07:12;;;;;;;1.80;1.70;;;;;;;11.32;35.70;103138.25;5078260;28;20565;-78
2022/04/17 10:09:39;;;;;;;2.53;1.97;;;;;;;11.44;41.78;103080.97;5077383;28;20249;-78
2022/04/17 10:12:06;;;;;;;1.87;1.77;;;;;;;11.56;40.05;103007.06;5077800;28;20612;-78
2022/04/17 10:14:33;;;;;;;2.43;2.10;;;;;;;11.66;43.15;102947.94;5068139;28;20284;-79
2022/04/17 10:17:02;;;;;;;2.67;2.47;;;;;;;11.76;38.82;102914.97;5077136;28;20212;-78
2022/04/17 10:19:31;;;;;;;1.73;1.63;;;;;;;11.76;37.31;103035.34;5076764;28;20205;-81
2022/04/17 10:22:00;;;;;;;1.60;1.50;;;;;;;11.69;37.19;103081.41;5079890;28;20294;-80
2022/04/17 10:24:27;;;;;;;3.60;2.37;;;;;;;11.71;37.30;103066.63;5080278;28;20571;-79
2022/04/17 10:26:55;;;;;;;10.07;7.47;;;;;;;11.71;36.43;103087.56;5080231;28;20200;-80
2022/04/17 10:29:26;;;;;;;2.97;2.40;;;;;;;11.72;37.87;103077.13;5080265;28;20233;-79
2022/04/17 10:32:15;;;;;;;2.93;1.80;;;;;;;11.87;36.94;103033.78;5080109;28;20229;-79
2022/04/17 10:35:12;;;;;;;1.50;1.20;;;;;;;11.89;35.25;103097.53;5080666;28;20199;-79
2022/04/17 10:38:11;;;;;;;1.70;1.60;;;;;;;12.01;39.79;103055.88;5080790;28;20376;-79
2022/04/17 10:40:38;;;;;;;1.60;1.50;;;;;;;12.08;39.78;103023.69;5080176;28;20228;-80
2022/04/17 10:43:06;;;;;;;1.30;1.20;;;;;;;12.15;34.80;103078.78;5079573;28;20292;-79
2022/04/17 10:45:32;;;;;;;1.40;1.30;;;;;;;12.16;34.30;103128.56;5076787;28;20273;-80
2022/04/17 10:48:08;;;;;;;1.33;1.10;;;;;;;12.22;37.50;103130.41;5079866;28;20204;-80
2022/04/17 10:50:42;;;;;;;0.83;0.83;;;;;;;12.31;35.81;103075.59;5076407;28;20314;-80
2022/04/17 10:53:25;;;;;;;0.80;0.80;;;;;;;12.36;35.42;103083.50;5071207;28;20246;-80
2022/04/17 10:56:05;;;;;;;1.70;0.63;;;;;;;12.42;33.34;103139.50;5071025;28;20238;-80
2022/04/17 10:58:36;;;;;;;1.00;0.80;;;;;;;12.47;31.76;103210.31;5066252;28;20194;-80
2022/04/17 11:01:02;;;;;;;0.80;0.60;;;;;;;12.51;33.65;103241.84;5071677;28;20221;-80
2022/04/17 11:03:29;;;;;;;0.70;0.60;;;;;;;12.60;34.06;103187.81;5067771;28;20223;-79
2022/04/17 11:08:47;;;;;;;0.80;0.70;;;;;;;12.87;32.77;103162.06;5068594;28;20212;-79
2022/04/17 11:11:14;;;;;;;1.43;1.10;;;;;;;13.06;34.21;103141.34;5069950;28;20235;-79
2022/04/17 11:14:11;;;;;;;1.00;0.70;;;;;;;13.20;32.14;103183.50;5066055;28;20197;-79
2022/04/17 11:16:40;;;;;;;0.97;0.57;;;;;;;13.41;32.02;103151.47;5068859;28;20193;-80
2022/04/17 11:19:11;;;;;;;0.60;0.60;;;;;;;13.62;33.70;103137.75;5072670;28;20219;-79
2022/04/17 11:21:38;;;;;;;1.00;0.80;;;;;;;13.80;31.01;103182.59;5069142;28;20580;-80
2022/04/17 11:24:04;;;;;;;0.87;0.87;;;;;;;13.90;30.64;103222.97;5068015;28;20209;-79
2022/04/17 11:27:09;;;;;;;1.17;0.83;;;;;;;14.12;30.41;103224.09;5069085;28;20201;-79
2022/04/17 11:29:40;;;;;;;0.90;0.80;;;;;;;14.39;30.06;103254.16;5069810;28;20760;-79
2022/04/17 11:32:43;;;;;;;0.77;0.77;;;;;;;15.06;29.92;103228.50;5067311;28;20203;-79
2022/04/17 11:35:11;;;;;;;1.00;0.93;;;;;;;16.43;28.74;103263.41;5076159;28;20207;-80
2022/04/17 11:37:38;;;;;;;1.70;0.80;;;;;;;18.33;25.89;103308.03;5073885;28;20230;-80
2022/04/17 11:40:10;;;;;;;1.87;0.90;;;;;;;19.55;25.37;103393.63;5068430;28;20704;-80
2022/04/17 11:42:41;;;;;;;1.10;1.10;;;;;;;21.03;24.96;103371.50;5070805;28;20226;-80
2022/04/17 11:45:11;;;;;;;1.13;1.00;;;;;;;22.54;21.64;103405.94;5069731;28;20244;-80